createdAt,value
2022-08-19T00:01:44.448Z,15.45
2022-08-19T00:04:14.893Z,16.08
2022-08-19T00:06:45.379Z,23.20
2022-08-19T00:09:15.819Z,16.10
2022-08-19T00:11:44.689Z,14.57
2022-08-19T00:14:16.665Z,17.60
2022-08-19T00:16:47.528Z,15.38
2022-08-19T00:19:15.343Z,16.83
2022-08-19T00:21:42.759Z,17.15
2022-08-19T00:24:12.634Z,15.15
2022-08-19T00:26:41.192Z,14.52
2022-08-19T00:29:10.965Z,19.23
2022-08-19T00:31:38.040Z,14.85
2022-08-19T00:34:05.179Z,19.02
2022-08-19T00:36:33.808Z,17.20
2022-08-19T00:39:01.859Z,19.42
2022-08-19T00:41:29.195Z,17.10
2022-08-19T00:44:09.558Z,20.45
2022-08-19T00:46:39.900Z,19.23
2022-08-19T00:49:22.412Z,14.65
2022-08-19T00:52:00.617Z,14.32
2022-08-19T00:54:31.035Z,16.90
2022-08-19T00:57:00.389Z,17.00
2022-08-19T01:00:01.879Z,16.33
2022-08-19T01:02:17.891Z,16.23
2022-08-19T01:04:44.988Z,17.33
2022-08-19T01:07:15.243Z,15.85
2022-08-19T01:09:44.404Z,19.52
2022-08-19T01:12:11.802Z,17.58
2022-08-19T01:14:41.272Z,15.20
2022-08-19T01:17:12.620Z,17.38
2022-08-19T01:19:43.525Z,16.23
2022-08-19T01:22:34.036Z,14.65
2022-08-19T01:25:02.397Z,20.05
2022-08-19T01:27:50.275Z,25.65
2022-08-19T01:30:31.222Z,17.88
2022-08-19T01:32:59.522Z,17.90
2022-08-19T01:35:32.495Z,17.27
2022-08-19T01:38:06.968Z,15.73
2022-08-19T01:40:39.203Z,20.42
2022-08-19T01:43:06.838Z,15.90
2022-08-19T01:45:35.596Z,16.75
2022-08-19T01:48:03.407Z,18.83
2022-08-19T01:50:32.794Z,20.30
2022-08-19T01:53:05.845Z,16.30
2022-08-19T01:55:40.779Z,16.00
2022-08-19T01:58:17.398Z,17.67
2022-08-19T02:00:45.107Z,16.63
2022-08-19T02:03:13.238Z,13.93
2022-08-19T02:05:43.283Z,17.15
2022-08-19T02:08:11.047Z,16.88
2022-08-19T02:10:43.311Z,16.02
2022-08-19T02:13:11.576Z,17.67
2022-08-19T02:15:38.924Z,15.82
2022-08-19T02:18:06.398Z,15.60
2022-08-19T02:20:33.367Z,13.20
2022-08-19T02:23:02.300Z,16.13
2022-08-19T02:25:29.350Z,14.85
2022-08-19T02:27:56.276Z,15.60
2022-08-19T02:30:23.829Z,15.15
2022-08-19T02:32:50.755Z,13.60
2022-08-19T02:35:17.929Z,14.88
2022-08-19T02:38:03.828Z,17.02
2022-08-19T02:40:35.387Z,16.90
2022-08-19T02:43:08.566Z,14.70
2022-08-19T02:45:41.398Z,16.52
2022-08-19T02:48:12.692Z,14.70
2022-08-19T02:50:56.457Z,15.30
2022-08-19T02:53:27.749Z,16.75
2022-08-19T02:55:55.392Z,19.58
2022-08-19T02:58:23.367Z,17.50
2022-08-19T03:00:55.648Z,15.52
2022-08-19T03:03:23.176Z,15.35
2022-08-19T03:05:56.881Z,16.45
2022-08-19T03:08:26.856Z,17.83
2022-08-19T03:10:55.136Z,18.73
2022-08-19T03:13:24.357Z,14.30
2022-08-19T03:15:51.295Z,15.60
2022-08-19T03:18:18.391Z,16.30
2022-08-19T03:20:49.336Z,18.02
2022-08-19T03:23:17.613Z,17.00
2022-08-19T03:25:47.865Z,16.38
2022-08-19T03:28:30.889Z,15.45
2022-08-19T03:31:41.595Z,15.30
2022-08-19T03:34:01.913Z,16.42
2022-08-19T03:36:30.825Z,17.02
2022-08-19T03:39:00.701Z,17.38
2022-08-19T03:41:43.308Z,14.80
2022-08-19T03:44:17.917Z,15.80
2022-08-19T03:47:05.228Z,19.30
2022-08-19T03:49:36.054Z,17.30
2022-08-19T03:52:06.573Z,17.08
2022-08-19T03:54:35.608Z,15.63
2022-08-19T03:57:04.023Z,16.98
2022-08-19T03:59:35.257Z,15.90
2022-08-19T04:02:10.097Z,16.83
2022-08-19T04:04:40.491Z,17.02
2022-08-19T04:07:09.415Z,17.85
2022-08-19T04:09:37.637Z,17.83
2022-08-19T04:12:06.513Z,17.52
2022-08-19T04:14:34.753Z,17.40
2022-08-19T04:17:05.872Z,21.20
2022-08-19T04:19:35.358Z,15.13
2022-08-19T04:22:03.318Z,24.52
2022-08-19T04:24:30.252Z,19.40
2022-08-19T04:26:57.263Z,19.25
2022-08-19T04:29:26.423Z,16.40
2022-08-19T04:31:55.828Z,19.95
2022-08-19T04:34:27.965Z,18.23
2022-08-19T04:36:58.245Z,17.08
2022-08-19T04:39:48.741Z,18.40
2022-08-19T04:42:36.763Z,22.75
2022-08-19T04:45:12.907Z,16.13
2022-08-19T04:47:47.999Z,20.52
2022-08-19T04:50:27.697Z,19.70
2022-08-19T04:52:56.566Z,20.02
2022-08-19T04:55:26.626Z,18.65
2022-08-19T04:57:55.262Z,17.60
2022-08-19T05:00:22.315Z,17.67
2022-08-19T05:02:50.262Z,18.77
2022-08-19T05:05:18.290Z,17.55
2022-08-19T05:07:45.259Z,18.05
2022-08-19T05:10:12.657Z,18.15
2022-08-19T05:12:40.098Z,16.60
2022-08-19T05:15:09.575Z,17.42
2022-08-19T05:17:38.920Z,20.58
2022-08-19T05:20:26.665Z,16.80
2022-08-19T05:22:53.892Z,17.77
2022-08-19T05:25:22.828Z,22.23
2022-08-19T05:27:49.927Z,15.48
2022-08-19T05:30:18.203Z,17.02
2022-08-19T05:32:45.540Z,22.45
2022-08-19T05:35:13.132Z,15.63
2022-08-19T05:37:41.580Z,20.45
2022-08-19T05:40:10.730Z,16.67
2022-08-19T05:42:38.549Z,17.55
2022-08-19T05:45:06.472Z,17.60
2022-08-19T05:47:33.481Z,16.30
2022-08-19T05:50:02.787Z,15.75
2022-08-19T05:52:32.475Z,15.15
2022-08-19T05:55:00.457Z,18.92
2022-08-19T05:57:29.897Z,18.95
2022-08-19T05:59:59.140Z,18.50
2022-08-19T06:02:32.021Z,24.10
2022-08-19T06:04:59.335Z,15.30
2022-08-19T06:07:26.720Z,15.25
2022-08-19T06:10:00.380Z,15.18
2022-08-19T06:12:35.424Z,13.68
2022-08-19T06:15:11.568Z,20.02
2022-08-19T06:17:39.227Z,20.05
2022-08-19T06:20:09.797Z,18.52
2022-08-19T06:22:44.300Z,16.40
2022-08-19T06:25:13.523Z,16.13
2022-08-19T06:27:58.585Z,14.70
2022-08-19T06:30:28.683Z,18.33
2022-08-19T06:32:55.623Z,15.13
2022-08-19T06:35:22.660Z,18.17
2022-08-19T06:37:49.584Z,15.07
2022-08-19T06:40:16.677Z,14.32
2022-08-19T06:42:50.236Z,16.90
2022-08-19T06:45:25.104Z,14.48
2022-08-19T06:47:57.115Z,16.17
2022-08-19T06:50:26.986Z,15.10
2022-08-19T06:52:55.326Z,13.55
2022-08-19T06:55:22.585Z,15.73
2022-08-19T06:57:54.338Z,13.73
2022-08-19T07:00:21.702Z,14.02
2022-08-19T07:02:54.290Z,17.98
2022-08-19T07:05:24.359Z,16.13
2022-08-19T07:07:51.519Z,14.98
2022-08-19T07:10:19.485Z,13.88
2022-08-19T07:12:46.487Z,12.48
2022-08-19T07:15:14.084Z,13.82
2022-08-19T07:17:42.220Z,13.18
2022-08-19T07:20:11.275Z,16.38
2022-08-19T07:22:39.810Z,14.80
2022-08-19T07:25:09.931Z,17.90
2022-08-19T07:27:38.074Z,14.68
2022-08-19T07:30:11.663Z,19.00
2022-08-19T07:32:40.457Z,16.80
2022-08-19T07:35:08.566Z,15.25
2022-08-19T07:37:36.635Z,12.38
2022-08-19T07:40:07.376Z,14.57
2022-08-19T07:42:34.510Z,16.67
2022-08-19T07:45:01.442Z,14.18
2022-08-19T07:47:49.427Z,14.52
2022-08-19T07:50:17.077Z,15.05
2022-08-19T07:52:48.834Z,16.25
2022-08-19T07:55:41.225Z,14.70
2022-08-19T07:58:08.805Z,19.25
2022-08-19T08:00:36.954Z,13.13
2022-08-19T08:03:04.404Z,13.75
2022-08-19T08:06:06.243Z,15.02
2022-08-19T08:08:51.608Z,15.45
2022-08-19T08:11:23.898Z,13.50
2022-08-19T08:14:00.467Z,22.02
2022-08-19T08:16:34.757Z,18.92
2022-08-19T08:19:01.913Z,13.48
2022-08-19T08:21:28.936Z,15.25
2022-08-19T08:23:56.748Z,14.98
2022-08-19T08:26:25.971Z,15.63
2022-08-19T08:28:54.471Z,14.68
2022-08-19T08:31:21.673Z,18.25
2022-08-19T08:33:48.683Z,14.80
2022-08-19T08:36:17.019Z,15.70
2022-08-19T08:38:47.823Z,13.48
2022-08-19T08:41:35.409Z,16.92
2022-08-19T08:44:05.694Z,14.35
2022-08-19T08:46:46.854Z,12.43
2022-08-19T08:49:21.507Z,15.35
2022-08-19T08:51:59.646Z,12.35
2022-08-19T08:54:35.762Z,19.35
2022-08-19T08:57:11.222Z,16.70
2022-08-19T08:59:41.798Z,14.95
2022-08-19T09:02:09.875Z,14.32
2022-08-19T09:04:38.696Z,15.35
2022-08-19T09:07:51.135Z,13.38
2022-08-19T09:10:55.245Z,16.23
2022-08-19T09:13:42.331Z,14.70
2022-08-19T09:16:21.983Z,14.43
2022-08-19T09:18:59.937Z,12.52
2022-08-19T09:21:30.379Z,14.50
2022-08-19T09:24:00.485Z,13.10
2022-08-19T09:26:47.472Z,15.40
2022-08-19T09:29:18.275Z,14.85
2022-08-19T09:31:45.268Z,14.93
2022-08-19T09:34:21.163Z,19.05
2022-08-19T09:36:55.657Z,13.55
2022-08-19T09:39:23.173Z,14.90
2022-08-19T09:41:50.959Z,16.52
2022-08-19T09:44:18.879Z,13.77
2022-08-19T09:46:48.249Z,15.15
2022-08-19T09:49:22.708Z,14.90
2022-08-19T09:51:55.359Z,14.30
2022-08-19T09:54:23.589Z,13.88
2022-08-19T09:56:52.567Z,11.60
2022-08-19T09:59:19.682Z,13.48
2022-08-19T10:01:46.908Z,13.40
2022-08-19T10:04:19.966Z,13.35
2022-08-19T10:06:48.594Z,12.63
2022-08-19T10:09:33.590Z,15.57
2022-08-19T10:12:03.918Z,16.13
2022-08-19T10:14:31.752Z,12.98
2022-08-19T10:16:59.270Z,12.65
2022-08-19T10:19:26.776Z,11.90
2022-08-19T10:21:58.697Z,15.40
2022-08-19T10:24:28.913Z,14.20
2022-08-19T10:26:58.909Z,11.95
2022-08-19T10:29:32.915Z,16.35
2022-08-19T10:32:09.782Z,9.80
2022-08-19T10:34:48.385Z,12.18
2022-08-19T10:37:23.757Z,11.10
2022-08-19T10:39:56.419Z,11.77
2022-08-19T10:42:23.388Z,16.70
2022-08-19T10:44:51.977Z,10.93
2022-08-19T10:47:25.577Z,14.27
2022-08-19T10:50:15.104Z,15.00
2022-08-19T10:52:49.009Z,12.30
2022-08-19T10:55:41.871Z,11.63
2022-08-19T10:58:18.966Z,13.50
2022-08-19T11:00:54.770Z,12.38
2022-08-19T11:03:22.544Z,15.25
2022-08-19T11:06:00.908Z,12.07
2022-08-19T11:08:28.605Z,12.35
2022-08-19T11:10:58.538Z,15.70
2022-08-19T11:13:25.645Z,15.32
2022-08-19T11:16:07.824Z,12.00
2022-08-19T11:18:42.019Z,12.95
2022-08-19T11:21:20.032Z,11.68
2022-08-19T11:23:49.851Z,11.40
2022-08-19T11:26:18.130Z,10.80
2022-08-19T11:28:45.539Z,16.23
2022-08-19T11:31:19.586Z,14.13
2022-08-19T11:33:47.971Z,12.38
2022-08-19T11:36:16.377Z,15.90
2022-08-19T11:38:43.678Z,11.57
2022-08-19T11:41:10.678Z,11.65
2022-08-19T11:43:38.424Z,15.65
2022-08-19T11:46:08.573Z,10.30
2022-08-19T11:48:35.895Z,16.63
2022-08-19T11:51:15.168Z,18.80
2022-08-19T11:53:42.737Z,14.80
2022-08-19T11:56:11.163Z,13.38
2022-08-19T11:58:39.588Z,13.90
2022-08-19T12:01:12.364Z,11.35
2022-08-19T12:03:40.507Z,19.45
2022-08-19T12:06:15.361Z,12.80
2022-08-19T12:08:44.056Z,13.32
2022-08-19T12:11:16.053Z,12.15
2022-08-19T12:13:46.853Z,13.35
2022-08-19T12:16:24.675Z,14.25
2022-08-19T12:18:52.145Z,13.07
2022-08-19T12:21:29.555Z,14.13
2022-08-19T12:23:58.730Z,14.13
2022-08-19T12:26:27.772Z,13.30
2022-08-19T12:28:55.581Z,15.15
2022-08-19T12:31:22.884Z,13.88
2022-08-19T12:33:49.822Z,13.23
2022-08-19T12:36:18.680Z,12.45
2022-08-19T12:38:45.656Z,16.83
2022-08-19T12:41:16.367Z,10.88
2022-08-19T12:43:43.994Z,15.57
2022-08-19T12:46:12.269Z,15.23
2022-08-19T12:48:43.662Z,12.48
2022-08-19T12:51:17.380Z,14.93
2022-08-19T12:53:44.763Z,10.38
2022-08-19T12:56:15.698Z,13.48
2022-08-19T12:58:50.495Z,13.70
2022-08-19T13:01:22.630Z,16.27
2022-08-19T13:03:53.537Z,10.38
2022-08-19T13:06:20.663Z,11.65
2022-08-19T13:08:47.974Z,12.00
2022-08-19T13:11:18.811Z,14.75
2022-08-19T13:13:48.407Z,10.15
2022-08-19T13:16:16.274Z,11.32
2022-08-19T13:18:46.047Z,10.68
2022-08-19T13:21:14.269Z,12.00
2022-08-19T13:23:42.047Z,11.32
2022-08-19T13:26:11.486Z,14.95
2022-08-19T13:28:57.326Z,13.15
2022-08-19T13:31:45.791Z,10.98
2022-08-19T13:34:12.982Z,13.25
2022-08-19T13:36:40.403Z,12.38
2022-08-19T13:39:11.461Z,13.65
2022-08-19T13:41:48.961Z,19.17
2022-08-19T13:44:19.947Z,13.52
2022-08-19T13:46:54.336Z,10.38
2022-08-19T13:49:21.606Z,14.60
2022-08-19T13:51:48.625Z,14.43
2022-08-19T13:54:15.559Z,10.25
2022-08-19T13:56:46.136Z,7.35
2022-08-19T13:59:13.339Z,12.77
2022-08-19T14:01:42.184Z,13.05
2022-08-19T14:04:09.424Z,14.50
2022-08-19T14:06:36.450Z,10.40
2022-08-19T14:09:04.179Z,15.13
2022-08-19T14:11:31.147Z,13.57
2022-08-19T14:13:58.278Z,10.80
2022-08-19T14:16:25.599Z,9.60
2022-08-19T14:18:52.597Z,11.93
2022-08-19T14:21:26.250Z,12.05
2022-08-19T14:23:53.858Z,11.00
2022-08-19T14:26:22.701Z,12.43
2022-08-19T14:28:50.730Z,12.38
2022-08-19T14:31:20.031Z,11.70
2022-08-19T14:33:48.602Z,11.82
2022-08-19T14:36:16.094Z,14.68
2022-08-19T14:38:43.551Z,8.27
2022-08-19T14:41:21.591Z,12.52
2022-08-19T14:43:51.619Z,16.08
2022-08-19T14:46:22.413Z,12.65
2022-08-19T14:48:52.591Z,11.32
2022-08-19T14:51:22.871Z,11.85
2022-08-19T14:53:50.194Z,11.02
2022-08-19T14:56:21.524Z,15.27
2022-08-19T14:58:53.337Z,11.35
2022-08-19T15:01:23.113Z,12.65
2022-08-19T15:03:53.699Z,13.15
2022-08-19T15:06:23.176Z,15.63
2022-08-19T15:08:51.855Z,11.95
2022-08-19T15:11:22.178Z,10.60
2022-08-19T15:13:49.142Z,13.98
2022-08-19T15:16:17.859Z,13.32
2022-08-19T15:18:47.312Z,9.05
2022-08-19T15:21:26.590Z,10.90
2022-08-19T15:23:56.879Z,10.52
2022-08-19T15:26:24.169Z,10.30
2022-08-19T15:28:51.162Z,9.60
2022-08-19T15:31:27.918Z,7.70
2022-08-19T15:34:01.151Z,13.40
2022-08-19T15:36:28.554Z,9.75
2022-08-19T15:38:57.011Z,9.80
2022-08-19T15:41:29.069Z,13.77
2022-08-19T15:44:18.975Z,10.38
2022-08-19T15:46:48.270Z,9.75
2022-08-19T15:49:18.096Z,8.20
2022-08-19T15:51:48.550Z,10.75
2022-08-19T15:54:21.411Z,7.60
2022-08-19T15:57:09.263Z,10.43
2022-08-19T15:59:59.987Z,7.82
2022-08-19T16:02:53.632Z,12.13
2022-08-19T16:05:44.276Z,10.65
2022-08-19T16:08:11.643Z,8.15
2022-08-19T16:10:39.664Z,8.63
2022-08-19T16:13:06.675Z,11.50
2022-08-19T16:15:33.866Z,8.32
2022-08-19T16:18:04.376Z,13.50
2022-08-19T16:20:31.794Z,7.40
2022-08-19T16:23:00.496Z,7.97
2022-08-19T16:25:29.996Z,10.63
2022-08-19T16:28:07.792Z,10.50
2022-08-19T16:30:38.326Z,14.38
2022-08-19T16:33:06.107Z,11.52
2022-08-19T16:35:33.094Z,11.35
2022-08-19T16:38:00.068Z,8.40
2022-08-19T16:40:27.931Z,7.07
2022-08-19T16:42:54.958Z,11.73
2022-08-19T16:45:22.242Z,8.85
2022-08-19T16:47:49.222Z,10.93
2022-08-19T16:50:22.111Z,9.63
2022-08-19T16:52:52.304Z,12.52
2022-08-19T16:55:22.156Z,11.02
2022-08-19T16:57:50.323Z,10.95
2022-08-19T17:00:17.498Z,6.90
2022-08-19T17:02:44.470Z,10.23
2022-08-19T17:05:11.436Z,11.55
2022-08-19T17:07:38.460Z,9.13
2022-08-19T17:10:05.909Z,6.72
2022-08-19T17:12:32.851Z,9.77
2022-08-19T17:15:05.181Z,10.55
2022-08-19T17:17:32.139Z,8.80
2022-08-19T17:20:02.189Z,7.47
2022-08-19T17:22:29.689Z,8.65
2022-08-19T17:24:58.315Z,7.70
2022-08-19T17:27:32.421Z,14.18
2022-08-19T17:30:02.620Z,7.88
2022-08-19T17:32:32.507Z,7.53
2022-08-19T17:34:59.506Z,8.70
2022-08-19T17:37:26.502Z,8.38
2022-08-19T17:39:53.530Z,11.70
2022-08-19T17:42:20.553Z,8.00
2022-08-19T17:44:50.348Z,10.95
2022-08-19T17:47:19.481Z,9.05
2022-08-19T17:49:46.706Z,8.98
2022-08-19T17:52:13.662Z,10.45
2022-08-19T17:54:40.784Z,12.70
2022-08-19T17:57:08.539Z,11.98
2022-08-19T17:59:37.467Z,10.18
2022-08-19T18:02:06.801Z,12.65
2022-08-19T18:04:38.476Z,10.55
2022-08-19T18:07:06.579Z,10.63
2022-08-19T18:09:42.504Z,8.88
2022-08-19T18:12:12.950Z,8.82
2022-08-19T18:14:41.819Z,13.75
2022-08-19T18:17:17.414Z,11.63
2022-08-19T18:19:45.986Z,8.20
2022-08-19T18:22:36.544Z,9.23
2022-08-19T18:25:28.325Z,8.88
2022-08-19T18:28:00.573Z,10.15
2022-08-19T18:30:34.546Z,9.85
2022-08-19T18:33:09.143Z,11.77
2022-08-19T18:35:38.854Z,9.73
2022-08-19T18:38:25.762Z,11.93
2022-08-19T18:41:11.439Z,11.20
2022-08-19T18:43:56.928Z,10.02
2022-08-19T18:46:42.557Z,12.60
2022-08-19T18:49:17.578Z,9.25
2022-08-19T18:51:44.728Z,14.25
2022-08-19T18:54:12.621Z,12.52
2022-08-19T18:56:43.681Z,9.95
2022-08-19T18:59:12.887Z,9.65
2022-08-19T19:02:02.545Z,13.55
2022-08-19T19:04:36.933Z,9.60
2022-08-19T19:07:05.591Z,15.98
2022-08-19T19:09:32.870Z,14.60
2022-08-19T19:12:05.207Z,12.48
2022-08-19T19:14:49.105Z,10.32
2022-08-19T19:17:27.242Z,9.82
2022-08-19T19:19:56.570Z,11.75
2022-08-19T19:22:24.119Z,10.25
2022-08-19T19:24:55.355Z,12.35
2022-08-19T19:27:22.908Z,10.60
2022-08-19T19:30:16.024Z,10.75
2022-08-19T19:32:41.227Z,12.57
2022-08-19T19:35:10.724Z,13.90
2022-08-19T19:37:37.811Z,12.23
2022-08-19T19:40:06.582Z,8.90
2022-08-19T19:42:33.676Z,13.38
2022-08-19T19:45:02.117Z,12.88
2022-08-19T19:47:30.484Z,9.32
2022-08-19T19:50:14.328Z,12.35
2022-08-19T19:52:45.755Z,11.95
2022-08-19T19:55:18.216Z,12.57
2022-08-19T19:57:49.924Z,9.50
2022-08-19T20:00:19.123Z,11.43
2022-08-19T20:02:50.224Z,10.55
2022-08-19T20:05:20.858Z,9.98
2022-08-19T20:08:07.994Z,13.80
2022-08-19T20:10:35.783Z,8.90
2022-08-19T20:13:05.366Z,7.00
2022-08-19T20:15:32.850Z,10.07
2022-08-19T20:18:00.967Z,9.82
2022-08-19T20:20:28.257Z,12.02
2022-08-19T20:22:55.179Z,13.73
2022-08-19T20:25:22.494Z,10.20
2022-08-19T20:27:50.055Z,16.25
2022-08-19T20:30:20.540Z,10.30
2022-08-19T20:32:49.412Z,8.95
2022-08-19T20:35:21.148Z,9.95
2022-08-19T20:37:48.505Z,10.93
2022-08-19T20:40:20.068Z,13.57
2022-08-19T20:42:50.687Z,12.35
2022-08-19T20:45:32.510Z,10.73
2022-08-19T20:48:03.291Z,10.15
2022-08-19T20:50:35.113Z,11.68
2022-08-19T20:53:13.171Z,9.45
2022-08-19T20:55:43.696Z,8.82
2022-08-19T20:58:12.647Z,13.93
2022-08-19T21:00:41.045Z,8.30
2022-08-19T21:03:08.005Z,10.68
2022-08-19T21:05:34.977Z,10.20
2022-08-19T21:08:03.203Z,7.65
2022-08-19T21:10:33.336Z,7.72
2022-08-19T21:13:00.285Z,11.30
2022-08-19T21:15:27.322Z,11.63
2022-08-19T21:17:54.418Z,7.90
2022-08-19T21:20:21.734Z,11.25
2022-08-19T21:22:49.208Z,7.30
2022-08-19T21:25:21.166Z,7.25
2022-08-19T21:27:53.907Z,8.23
2022-08-19T21:30:21.173Z,13.23
2022-08-19T21:32:52.295Z,13.18
2022-08-19T21:35:20.142Z,9.45
2022-08-19T21:37:55.677Z,10.13
2022-08-19T21:40:22.803Z,13.35
2022-08-19T21:42:49.974Z,11.43
2022-08-19T21:45:21.169Z,10.75
2022-08-19T21:47:48.414Z,7.57
2022-08-19T21:50:15.587Z,9.90
2022-08-19T21:52:42.964Z,14.77
2022-08-19T21:55:10.354Z,12.48
2022-08-19T21:57:37.337Z,8.82
2022-08-19T22:00:13.242Z,10.82
2022-08-19T22:02:41.414Z,10.52
2022-08-19T22:05:08.662Z,11.00
2022-08-19T22:07:36.877Z,10.35
2022-08-19T22:10:06.819Z,14.18
2022-08-19T22:12:37.443Z,12.93
2022-08-19T22:15:08.994Z,13.48
2022-08-19T22:17:36.625Z,8.27
2022-08-19T22:20:10.848Z,10.57
2022-08-19T22:22:46.082Z,9.10
2022-08-19T22:25:31.338Z,8.52
2022-08-19T22:28:01.780Z,8.95
2022-08-19T22:30:33.258Z,12.18
2022-08-19T22:33:05.816Z,12.70
2022-08-19T22:35:37.794Z,11.07
2022-08-19T22:38:07.276Z,9.73
2022-08-19T22:40:39.658Z,12.43
2022-08-19T22:43:23.082Z,9.93
2022-08-19T22:45:52.745Z,13.75
2022-08-19T22:48:23.410Z,10.20
2022-08-19T22:51:09.339Z,9.25
2022-08-19T22:53:40.174Z,16.67
2022-08-19T22:56:14.453Z,10.40
2022-08-19T22:58:42.421Z,8.55
2022-08-19T23:01:27.138Z,14.52
2022-08-19T23:03:56.643Z,12.07
2022-08-19T23:06:23.627Z,12.15
2022-08-19T23:09:01.996Z,11.00
2022-08-19T23:11:33.485Z,8.80
2022-08-19T23:14:00.463Z,11.68
2022-08-19T23:16:27.434Z,10.73
2022-08-19T23:18:56.120Z,9.32
2022-08-19T23:21:26.525Z,7.80
2022-08-19T23:23:53.954Z,10.48
2022-08-19T23:26:21.409Z,6.43
2022-08-19T23:29:06.694Z,10.13
2022-08-19T23:31:33.720Z,10.95
2022-08-19T23:34:00.760Z,10.52
2022-08-19T23:36:27.788Z,13.45
2022-08-19T23:38:54.878Z,13.68
2022-08-19T23:41:23.401Z,12.18
2022-08-19T23:43:50.841Z,10.90
2022-08-19T23:46:27.922Z,8.00
2022-08-19T23:48:56.424Z,12.98
2022-08-19T23:51:23.449Z,8.05
2022-08-19T23:53:50.488Z,12.77
2022-08-19T23:56:17.438Z,11.00
2022-08-19T23:58:44.466Z,14.95
